Time;durP1;ratioP1;P1;durP2;ratioP2;P2;SDS_P1;SDS_P2;PMS_P1;PMS_P2;Temp;Humidity;BMP_temperature;BMP_pressure;BME280_temperature;BME280_humidity;BME280_pressure;Samples;Min_cycle;Max_cycle;Signal;HPM_P1;HPM_P2
2024/04/25 00:01:38;;;;;;;7.90;4.68;;;;;;;;;;5410407;26;20008;-61
2024/04/25 00:04:04;;;;;;;8.82;5.30;;;;;;;;;;5410391;26;20002;-62
2024/04/25 00:06:30;;;;;;;7.75;4.57;;;;;;;;;;5410825;26;19992;-61
2024/04/25 00:08:56;;;;;;;7.80;4.60;;;;;;;;;;5410502;26;20004;-62
2024/04/25 00:11:24;;;;;;;7.88;4.70;;;;;;;;;;5410471;26;19991;-62
2024/04/25 00:13:50;;;;;;;9.10;5.10;;;;;;;;;;5410107;26;19996;-61
2024/04/25 00:16:16;;;;;;;7.93;4.70;;;;;;;;;;5410344;26;20009;-62
2024/04/25 00:18:42;;;;;;;7.70;4.60;;;;;;;;;;5410779;26;19996;-58
2024/04/25 00:21:08;;;;;;;7.80;4.75;;;;;;;;;;5410534;26;20346;-61
2024/04/25 00:23:34;;;;;;;7.80;4.60;;;;;;;;;;5410455;26;19999;-60
2024/04/25 00:26:00;;;;;;;8.00;4.78;;;;;;;;;;5411188;26;19996;-60
2024/04/25 00:28:26;;;;;;;7.50;4.50;;;;;;;;;;5408790;26;19987;-61
2024/04/25 00:30:52;;;;;;;7.43;4.50;;;;;;;;;;5412837;26;20022;-62
2024/04/25 00:33:18;;;;;;;7.40;4.38;;;;;;;;;;5413540;26;20330;-61
2024/04/25 00:35:44;;;;;;;7.78;4.70;;;;;;;;;;5414199;26;20027;-61
2024/04/25 00:38:10;;;;;;;7.10;4.25;;;;;;;;;;5413458;26;20002;-61
2024/04/25 00:40:36;;;;;;;7.93;4.80;;;;;;;;;;5413630;26;20069;-63
2024/04/25 00:43:04;;;;;;;8.25;4.70;;;;;;;;;;5413170;26;20515;-62
2024/04/25 00:45:30;;;;;;;7.37;4.37;;;;;;;;;;5414075;26;20006;-62
2024/04/25 00:47:56;;;;;;;7.50;4.50;;;;;;;;;;5413935;26;20000;-63
2024/04/25 00:50:23;;;;;;;7.75;4.60;;;;;;;;;;5413612;26;20006;-63
2024/04/25 00:52:49;;;;;;;7.70;4.60;;;;;;;;;;5414314;26;20614;-63
2024/04/25 00:55:15;;;;;;;8.50;5.00;;;;;;;;;;5411937;26;19996;-63
2024/04/25 00:57:42;;;;;;;7.85;4.60;;;;;;;;;;5413751;26;19998;-61
2024/04/25 01:00:08;;;;;;;7.90;4.70;;;;;;;;;;5413688;26;19999;-61
2024/04/25 01:02:35;;;;;;;8.00;4.80;;;;;;;;;;5413732;26;20001;-63
2024/04/25 01:05:02;;;;;;;7.95;4.70;;;;;;;;;;5413738;26;20006;-62
2024/04/25 01:07:28;;;;;;;7.82;4.70;;;;;;;;;;5414017;26;19991;-63
2024/04/25 01:09:57;;;;;;;7.80;4.63;;;;;;;;;;5414022;26;20007;-63
2024/04/25 01:12:24;;;;;;;7.70;4.60;;;;;;;;;;5413918;26;19991;-63
2024/04/25 01:14:50;;;;;;;8.10;4.80;;;;;;;;;;5413329;26;19995;-63
2024/04/25 01:17:16;;;;;;;7.93;4.70;;;;;;;;;;5413874;26;20011;-63
2024/04/25 01:19:43;;;;;;;9.18;4.90;;;;;;;;;;5413465;26;19996;-63
2024/04/25 01:22:09;;;;;;;7.72;4.63;;;;;;;;;;5413495;26;20010;-62
2024/04/25 01:24:35;;;;;;;7.60;4.50;;;;;;;;;;5412853;26;20035;-63
2024/04/25 01:27:02;;;;;;;9.82;5.57;;;;;;;;;;5413289;26;20031;-63
2024/04/25 01:29:29;;;;;;;8.00;4.80;;;;;;;;;;5410943;26;20076;-63
2024/04/25 01:31:55;;;;;;;7.90;4.70;;;;;;;;;;5413100;26;19991;-64
2024/04/25 01:34:22;;;;;;;8.15;4.72;;;;;;;;;;5412736;26;20006;-62
2024/04/25 01:36:48;;;;;;;7.70;4.60;;;;;;;;;;5413139;26;19992;-63
2024/04/25 01:39:14;;;;;;;8.43;5.00;;;;;;;;;;5413001;26;20073;-63
2024/04/25 01:41:40;;;;;;;7.40;4.50;;;;;;;;;;5412484;26;19996;-60
2024/04/25 01:44:06;;;;;;;7.50;4.50;;;;;;;;;;5411784;26;20334;-62
2024/04/25 01:46:32;;;;;;;9.52;5.07;;;;;;;;;;5412567;26;20000;-63
2024/04/25 01:49:01;;;;;;;7.95;4.70;;;;;;;;;;5413031;26;20002;-63
2024/04/25 01:51:33;;;;;;;7.60;4.57;;;;;;;;;;5413137;26;19991;-61
2024/04/25 01:53:59;;;;;;;7.65;4.55;;;;;;;;;;5412603;26;19996;-62
2024/04/25 01:56:25;;;;;;;7.80;4.60;;;;;;;;;;5412471;26;20330;-61
2024/04/25 01:58:52;;;;;;;8.50;5.22;;;;;;;;;;5410735;26;20010;-61
2024/04/25 02:01:19;;;;;;;7.60;4.55;;;;;;;;;;5412886;26;20000;-61
2024/04/25 02:03:45;;;;;;;7.40;4.40;;;;;;;;;;5411921;26;19992;-61
2024/04/25 02:06:12;;;;;;;7.55;4.45;;;;;;;;;;5412516;26;20014;-60
2024/04/25 02:08:38;;;;;;;7.70;4.60;;;;;;;;;;5412154;26;20087;-61
2024/04/25 02:11:07;;;;;;;7.78;4.60;;;;;;;;;;5412354;26;20338;-61
2024/04/25 02:13:33;;;;;;;7.35;4.43;;;;;;;;;;5411832;26;20326;-61
2024/04/25 02:15:59;;;;;;;7.80;4.60;;;;;;;;;;5410576;26;20415;-62
2024/04/25 02:18:25;;;;;;;7.72;4.60;;;;;;;;;;5412816;26;19992;-62
2024/04/25 02:26:20;;;;;;;7.93;4.75;;;;;;;;;;5412633;26;20345;-63
2024/04/25 02:28:46;;;;;;;8.10;4.80;;;;;;;;;;5412280;26;19995;-62
2024/04/25 02:31:13;;;;;;;8.18;4.88;;;;;;;;;;5412036;26;20461;-62
2024/04/25 02:33:40;;;;;;;7.75;4.60;;;;;;;;;;5411751;26;19992;-63
2024/04/25 02:36:08;;;;;;;7.60;4.50;;;;;;;;;;5412772;26;20005;-63
2024/04/25 02:38:34;;;;;;;;;;;;;;;;;;5412922;26;19996;-63
2024/04/25 02:41:00;;;;;;;8.30;4.90;;;;;;;;;;5412195;26;19936;-63
2024/04/25 02:43:26;;;;;;;7.45;4.45;;;;;;;;;;5411317;26;20011;-63
2024/04/25 02:45:52;;;;;;;14.85;7.57;;;;;;;;;;5412241;26;20422;-60
2024/04/25 02:48:18;;;;;;;7.85;4.65;;;;;;;;;;5412571;26;20010;-61
2024/04/25 02:50:44;;;;;;;7.40;4.40;;;;;;;;;;5411842;26;19995;-61
2024/04/25 02:53:10;;;;;;;7.90;4.63;;;;;;;;;;5409588;26;19991;-63
2024/04/25 02:55:36;;;;;;;9.88;5.85;;;;;;;;;;5411790;26;20006;-61
2024/04/25 02:58:02;;;;;;;7.47;4.50;;;;;;;;;;5411762;26;20416;-61
2024/04/25 03:00:28;;;;;;;8.98;4.95;;;;;;;;;;5409916;26;20012;-61
2024/04/25 03:02:54;;;;;;;7.60;4.50;;;;;;;;;;5411272;26;20068;-63
2024/04/25 03:05:20;;;;;;;7.50;4.40;;;;;;;;;;5409355;26;20456;-60
2024/04/25 03:07:46;;;;;;;7.55;4.50;;;;;;;;;;5411746;26;20072;-63
2024/04/25 03:10:12;;;;;;;9.85;5.55;;;;;;;;;;5412069;26;20003;-60
2024/04/25 03:12:38;;;;;;;7.68;4.50;;;;;;;;;;5409395;26;20330;-61
2024/04/25 03:15:05;;;;;;;6.78;4.05;;;;;;;;;;5410855;26;20076;-62
2024/04/25 03:17:31;;;;;;;7.25;4.30;;;;;;;;;;5411981;26;20000;-61
2024/04/25 03:19:56;;;;;;;7.13;4.22;;;;;;;;;;5409708;26;20094;-61
2024/04/25 03:22:22;;;;;;;7.70;4.50;;;;;;;;;;5409197;26;20015;-60
2024/04/25 03:24:48;;;;;;;9.45;5.15;;;;;;;;;;5410955;26;20076;-61
2024/04/25 03:27:14;;;;;;;8.68;4.63;;;;;;;;;;5409569;26;19999;-61
2024/04/25 03:29:40;;;;;;;7.15;4.30;;;;;;;;;;5411395;26;19995;-60
2024/04/25 03:32:07;;;;;;;7.30;4.30;;;;;;;;;;5411119;26;20350;-63
2024/04/25 03:34:34;;;;;;;7.85;4.68;;;;;;;;;;5410719;26;19991;-61
2024/04/25 03:37:00;;;;;;;7.80;4.40;;;;;;;;;;5410798;26;19995;-62
2024/04/25 03:39:26;;;;;;;7.35;4.40;;;;;;;;;;5410921;26;20399;-62
2024/04/25 03:41:52;;;;;;;7.10;4.10;;;;;;;;;;5410914;26;19996;-62
2024/04/25 03:44:18;;;;;;;6.80;4.00;;;;;;;;;;5410443;26;20322;-60
2024/04/25 03:46:46;;;;;;;7.05;4.22;;;;;;;;;;5411734;26;20007;-61
2024/04/25 03:49:12;;;;;;;6.88;4.10;;;;;;;;;;5408557;26;20354;-62
2024/04/25 03:51:38;;;;;;;7.00;4.20;;;;;;;;;;5410565;26;20011;-62
2024/04/25 03:54:04;;;;;;;7.57;4.45;;;;;;;;;;5408544;26;20405;-59
2024/04/25 03:56:30;;;;;;;7.47;4.30;;;;;;;;;;5410887;26;19995;-61
2024/04/25 03:58:56;;;;;;;7.30;4.30;;;;;;;;;;5410529;26;20916;-61
2024/04/25 04:01:22;;;;;;;7.13;4.22;;;;;;;;;;5410438;26;20453;-62
2024/04/25 04:03:48;;;;;;;7.32;4.40;;;;;;;;;;5411017;26;20076;-63
2024/04/25 04:06:18;;;;;;;8.10;4.68;;;;;;;;;;5414205;26;20649;-61
2024/04/25 04:08:44;;;;;;;7.50;4.50;;;;;;;;;;5412433;26;19995;-61
2024/04/25 04:11:10;;;;;;;7.70;4.60;;;;;;;;;;5414350;26;20068;-62
2024/04/25 04:13:36;;;;;;;7.75;4.60;;;;;;;;;;5413620;26;20438;-63
2024/04/25 04:16:03;;;;;;;9.05;5.38;;;;;;;;;;5414340;26;20000;-62
2024/04/25 04:18:28;;;;;;;9.45;5.60;;;;;;;;;;5413716;26;20000;-60
2024/04/25 04:20:54;;;;;;;10.70;6.25;;;;;;;;;;5413084;26;20084;-61
2024/04/25 04:23:20;;;;;;;10.13;5.93;;;;;;;;;;5412654;26;19995;-60
2024/04/25 04:25:46;;;;;;;10.68;6.22;;;;;;;;;;5412044;26;20513;-56
2024/04/25 04:28:12;;;;;;;10.20;6.03;;;;;;;;;;5432841;26;20008;-60
2024/04/25 04:30:38;;;;;;;10.68;6.28;;;;;;;;;;5439549;26;20006;-63
2024/04/25 04:33:04;;;;;;;10.60;6.20;;;;;;;;;;5413063;26;20689;-62
2024/04/25 04:35:30;;;;;;;11.10;6.47;;;;;;;;;;5432240;26;20002;-61
2024/04/25 04:37:57;;;;;;;10.55;6.20;;;;;;;;;;5449167;26;20010;-58
2024/04/25 04:40:23;;;;;;;10.80;6.30;;;;;;;;;;5447191;26;20397;-60
2024/04/25 04:42:49;;;;;;;10.80;6.45;;;;;;;;;;5448366;26;20073;-60
2024/04/25 04:45:15;;;;;;;10.68;6.28;;;;;;;;;;5413106;26;20079;-59
2024/04/25 04:47:41;;;;;;;10.60;6.20;;;;;;;;;;5413533;26;19996;-58
2024/04/25 04:50:07;;;;;;;11.30;6.70;;;;;;;;;;5412927;26;20469;-56
2024/04/25 04:52:33;;;;;;;10.48;6.10;;;;;;;;;;5412677;26;19995;-59
2024/04/25 04:54:59;;;;;;;10.32;6.10;;;;;;;;;;5412904;26;20438;-62
2024/04/25 04:57:26;;;;;;;10.90;6.30;;;;;;;;;;5412643;26;20070;-62
2024/04/25 04:59:52;;;;;;;10.43;6.13;;;;;;;;;;5413073;26;20036;-63
2024/04/25 05:02:18;;;;;;;10.90;6.40;;;;;;;;;;5448665;26;19991;-60
2024/04/25 05:04:44;;;;;;;10.70;6.30;;;;;;;;;;5448539;26;19994;-63
2024/04/25 05:07:10;;;;;;;11.20;6.50;;;;;;;;;;5448215;26;20039;-64
2024/04/25 05:09:39;;;;;;;10.70;6.30;;;;;;;;;;5448866;26;20009;-62
2024/04/25 05:12:05;;;;;;;10.82;6.30;;;;;;;;;;5448479;26;20405;-63
2024/04/25 05:14:31;;;;;;;10.82;6.32;;;;;;;;;;5448172;26;20002;-64
2024/04/25 05:16:57;;;;;;;12.48;7.25;;;;;;;;;;5444550;26;20006;-60
2024/04/25 05:19:23;;;;;;;11.00;6.50;;;;;;;;;;5448134;26;20005;-63
2024/04/25 05:21:53;;;;;;;10.77;6.30;;;;;;;;;;5448151;26;20027;-62
2024/04/25 05:24:20;;;;;;;10.88;6.43;;;;;;;;;;5447841;26;20002;-64
2024/04/25 05:26:46;;;;;;;11.00;6.45;;;;;;;;;;5435219;26;20036;-62
2024/04/25 05:29:12;;;;;;;10.68;6.25;;;;;;;;;;5415419;26;20499;-62
2024/04/25 05:31:38;;;;;;;10.50;6.15;;;;;;;;;;5447932;26;19999;-65
2024/04/25 05:34:04;;;;;;;9.80;5.78;;;;;;;;;;5447290;26;19995;-63
2024/04/25 05:36:30;;;;;;;10.20;6.00;;;;;;;;;;5448071;26;20005;-64
2024/04/25 05:38:56;;;;;;;9.60;5.65;;;;;;;;;;5448921;26;20014;-63
2024/04/25 05:41:22;;;;;;;10.45;6.20;;;;;;;;;;5448649;26;20011;-60
2024/04/25 05:43:49;;;;;;;9.50;5.63;;;;;;;;;;5447613;26;20691;-61
2024/04/25 05:46:15;;;;;;;10.30;6.25;;;;;;;;;;5448205;26;20002;-61
2024/04/25 05:48:42;;;;;;;11.25;6.65;;;;;;;;;;5447596;26;20456;-64
2024/04/25 05:51:08;;;;;;;9.68;5.70;;;;;;;;;;5447884;26;20006;-61
2024/04/25 05:53:34;;;;;;;11.82;6.55;;;;;;;;;;5446818;26;20340;-63
2024/04/25 05:56:00;;;;;;;10.73;6.13;;;;;;;;;;5447889;26;20064;-62
2024/04/25 05:58:26;;;;;;;9.90;5.97;;;;;;;;;;5447327;26;20038;-62
2024/04/25 06:00:52;;;;;;;9.75;5.97;;;;;;;;;;5435090;26;20125;-63
2024/04/25 06:03:18;;;;;;;9.38;5.50;;;;;;;;;;5409186;26;20002;-60
2024/04/25 06:05:44;;;;;;;9.10;5.40;;;;;;;;;;5411509;26;20021;-61
2024/04/25 06:08:10;;;;;;;9.20;5.57;;;;;;;;;;5411917;26;20009;-63
2024/04/25 06:10:36;;;;;;;8.98;5.32;;;;;;;;;;5412150;26;20035;-63
2024/04/25 06:13:02;;;;;;;8.70;5.13;;;;;;;;;;5411061;26;20144;-63
2024/04/25 06:15:28;;;;;;;9.80;5.70;;;;;;;;;;5411019;26;20004;-62
2024/04/25 06:17:55;;;;;;;12.35;7.00;;;;;;;;;;5411570;26;20002;-63
2024/04/25 06:20:21;;;;;;;8.90;5.30;;;;;;;;;;5411467;26;19992;-62
2024/04/25 06:22:47;;;;;;;12.32;6.00;;;;;;;;;;5411508;26;20090;-63
2024/04/25 06:25:13;;;;;;;9.60;5.70;;;;;;;;;;5410669;26;20003;-62
2024/04/25 06:27:39;;;;;;;9.45;5.50;;;;;;;;;;5411507;26;20006;-61
2024/04/25 06:30:05;;;;;;;10.10;6.13;;;;;;;;;;5410947;26;19987;-64
2024/04/25 06:32:31;;;;;;;31.23;7.28;;;;;;;;;;5410959;26;20032;-60
2024/04/25 06:34:57;;;;;;;10.05;5.90;;;;;;;;;;5408678;26;20003;-61
2024/04/25 06:37:23;;;;;;;10.82;6.30;;;;;;;;;;5411073;26;20060;-62
2024/04/25 06:39:49;;;;;;;10.07;5.97;;;;;;;;;;5411505;26;20422;-60
2024/04/25 06:42:15;;;;;;;12.50;6.65;;;;;;;;;;5440344;26;20010;-63
2024/04/25 06:44:41;;;;;;;10.68;6.25;;;;;;;;;;5445703;26;20392;-62
2024/04/25 06:47:10;;;;;;;10.93;6.80;;;;;;;;;;5446950;26;20031;-62
2024/04/25 06:49:36;;;;;;;;;;;;;;;;;;5447479;26;19995;-59
2024/04/25 06:52:02;;;;;;;10.00;5.85;;;;;;;;;;5446640;26;19924;-60
2024/04/25 06:54:28;;;;;;;10.82;6.30;;;;;;;;;;5446839;26;19995;-62
2024/04/25 06:56:54;;;;;;;11.00;6.60;;;;;;;;;;5447095;26;19991;-60
2024/04/25 06:59:20;;;;;;;10.77;6.30;;;;;;;;;;5446746;26;20111;-59
2024/04/25 07:01:50;;;;;;;11.43;6.65;;;;;;;;;;5446352;26;19990;-62
2024/04/25 07:04:17;;;;;;;13.07;7.80;;;;;;;;;;5446605;26;19995;-54
2024/04/25 07:06:43;;;;;;;12.55;7.15;;;;;;;;;;5447511;26;20073;-54
2024/04/25 07:09:09;;;;;;;12.70;8.30;;;;;;;;;;5447745;26;20008;-58
2024/04/25 07:11:35;;;;;;;11.55;6.70;;;;;;;;;;5447452;26;20294;-61
2024/04/25 07:14:02;;;;;;;11.23;6.50;;;;;;;;;;5446749;26;20075;-60
2024/04/25 07:16:28;;;;;;;12.43;7.35;;;;;;;;;;5447392;26;20013;-61
2024/04/25 07:18:54;;;;;;;12.25;7.03;;;;;;;;;;5446662;26;19999;-60
2024/04/25 07:21:23;;;;;;;11.57;6.70;;;;;;;;;;5446920;26;19999;-58
2024/04/25 07:23:49;;;;;;;11.60;7.03;;;;;;;;;;5446608;26;20053;-60
2024/04/25 07:26:15;;;;;;;12.65;8.05;;;;;;;;;;5447038;26;20062;-62
2024/04/25 07:28:41;;;;;;;11.23;6.60;;;;;;;;;;5422564;26;19995;-54
2024/04/25 07:31:07;;;;;;;13.20;7.50;;;;;;;;;;5409132;26;19992;-62
2024/04/25 07:33:33;;;;;;;12.25;7.68;;;;;;;;;;5410422;26;20084;-61
2024/04/25 07:35:59;;;;;;;11.60;6.90;;;;;;;;;;5411205;26;20372;-63
2024/04/25 07:38:25;;;;;;;12.18;7.18;;;;;;;;;;5410203;26;19995;-66
2024/04/25 07:40:51;;;;;;;12.68;7.30;;;;;;;;;;5407996;26;20007;-64
2024/04/25 07:43:17;;;;;;;12.60;7.22;;;;;;;;;;5407167;26;19992;-62
2024/04/25 07:45:43;;;;;;;11.93;6.90;;;;;;;;;;5409450;26;19991;-64
2024/04/25 07:48:10;;;;;;;12.50;7.60;;;;;;;;;;5408830;26;20073;-63
2024/04/25 07:50:35;;;;;;;13.35;9.05;;;;;;;;;;5406607;26;20373;-61
2024/04/25 07:53:01;;;;;;;13.38;7.90;;;;;;;;;;5406677;26;20311;-64
2024/04/25 07:55:27;;;;;;;13.18;7.78;;;;;;;;;;5407346;26;20074;-64
2024/04/25 07:57:53;;;;;;;13.40;8.23;;;;;;;;;;5405724;26;20508;-64
2024/04/25 08:00:20;;;;;;;13.40;8.00;;;;;;;;;;5407654;26;19991;-64
2024/04/25 08:02:46;;;;;;;29.58;8.18;;;;;;;;;;5407494;26;19995;-66
2024/04/25 08:05:12;;;;;;;13.38;8.00;;;;;;;;;;5410313;26;20003;-63
2024/04/25 08:07:38;;;;;;;13.13;7.82;;;;;;;;;;5409592;26;20213;-63
2024/04/25 08:10:05;;;;;;;13.38;8.05;;;;;;;;;;5410412;26;20093;-65
2024/04/25 08:12:31;;;;;;;13.38;8.45;;;;;;;;;;5409958;26;20012;-64
2024/04/25 08:14:57;;;;;;;13.07;7.70;;;;;;;;;;5409725;26;20000;-65
2024/04/25 08:17:23;;;;;;;13.35;7.95;;;;;;;;;;5410253;26;20458;-66
2024/04/25 08:19:52;;;;;;;17.83;9.63;;;;;;;;;;5407846;26;20011;-64
2024/04/25 08:22:24;;;;;;;13.50;8.30;;;;;;;;;;5409862;26;19996;-66
2024/04/25 08:24:51;;;;;;;13.45;8.25;;;;;;;;;;5409592;26;19999;-62
2024/04/25 08:27:18;;;;;;;13.40;8.32;;;;;;;;;;5409632;26;19992;-65
2024/04/25 08:29:44;;;;;;;13.48;8.00;;;;;;;;;;5409001;26;19996;-60
2024/04/25 08:32:10;;;;;;;13.60;8.60;;;;;;;;;;5409940;26;20061;-61
2024/04/25 08:34:36;;;;;;;14.00;9.00;;;;;;;;;;5418643;26;20006;-63
2024/04/25 08:37:02;;;;;;;13.57;8.80;;;;;;;;;;5425766;26;20035;-60
2024/04/25 08:39:28;;;;;;;13.68;8.90;;;;;;;;;;5424804;26;20010;-64
2024/04/25 08:41:54;;;;;;;13.55;8.57;;;;;;;;;;5426316;26;20086;-65
2024/04/25 08:44:21;;;;;;;14.20;9.40;;;;;;;;;;5424829;26;20380;-60
2024/04/25 08:46:48;;;;;;;13.60;8.60;;;;;;;;;;5427301;26;20097;-62
2024/04/25 08:49:15;;;;;;;14.25;9.50;;;;;;;;;;5438253;26;19999;-60
2024/04/25 08:51:41;;;;;;;13.70;9.02;;;;;;;;;;5447178;26;20322;-61
2024/04/25 08:54:07;;;;;;;13.77;9.20;;;;;;;;;;5448428;26;20010;-61
2024/04/25 08:56:33;;;;;;;13.80;9.20;;;;;;;;;;5448755;26;19990;-62
2024/04/25 08:59:00;;;;;;;13.70;8.90;;;;;;;;;;5449599;26;20040;-64
2024/04/25 09:01:27;;;;;;;13.70;8.85;;;;;;;;;;5449476;26;19999;-61
2024/04/25 09:03:54;;;;;;;13.77;9.20;;;;;;;;;;5442343;26;20397;-61
2024/04/25 09:06:21;;;;;;;14.13;9.88;;;;;;;;;;5430940;26;20402;-63
2024/04/25 09:08:48;;;;;;;13.57;8.73;;;;;;;;;;5427265;26;20017;-60
2024/04/25 09:11:24;;;;;;;13.90;9.48;;;;;;;;;;5426125;26;20036;-61
2024/04/25 09:13:57;;;;;;;14.30;9.90;;;;;;;;;;5427990;26;20008;-62
2024/04/25 09:16:24;;;;;;;13.88;9.20;;;;;;;;;;5448858;26;19999;-61
2024/04/25 09:18:50;;;;;;;14.00;9.70;;;;;;;;;;5448385;26;20034;-62
2024/04/25 09:21:16;;;;;;;13.95;9.48;;;;;;;;;;5429091;26;20443;-60
2024/04/25 09:23:42;;;;;;;14.30;9.90;;;;;;;;;;5431445;26;20468;-64
2024/04/25 09:26:12;;;;;;;14.02;9.80;;;;;;;;;;5427560;26;20037;-61
2024/04/25 09:28:39;;;;;;;13.82;9.38;;;;;;;;;;5413052;26;20464;-57
2024/04/25 09:31:05;;;;;;;13.80;9.30;;;;;;;;;;5410763;26;20443;-60
2024/04/25 09:33:31;;;;;;;13.93;9.48;;;;;;;;;;5409322;26;20466;-62
2024/04/25 09:35:57;;;;;;;14.88;9.45;;;;;;;;;;5412963;26;19999;-65
2024/04/25 09:38:24;;;;;;;14.07;9.73;;;;;;;;;;5412807;26;20418;-60
2024/04/25 09:40:51;;;;;;;13.93;9.43;;;;;;;;;;5412476;26;20338;-63
2024/04/25 09:43:17;;;;;;;13.95;9.43;;;;;;;;;;5411294;26;20006;-63
2024/04/25 09:45:43;;;;;;;13.57;8.75;;;;;;;;;;5411999;26;20045;-59
2024/04/25 09:48:22;;;;;;;16.70;14.32;;;;;;;;;;5412380;26;20002;-61
2024/04/25 09:50:49;;;;;;;16.88;15.07;;;;;;;;;;5412210;26;20508;-63
2024/04/25 09:53:23;;;;;;;17.08;15.27;;;;;;;;;;5411452;26;20031;-61
2024/04/25 09:55:50;;;;;;;16.30;14.60;;;;;;;;;;5411927;26;20000;-63
2024/04/25 09:58:36;;;;;;;16.40;14.70;;;;;;;;;;5413052;26;19999;-63
2024/04/25 10:01:03;;;;;;;15.40;13.25;;;;;;;;;;5393546;26;20003;-62
2024/04/25 10:03:30;;;;;;;15.20;12.57;;;;;;;;;;5411204;26;20000;-63
2024/04/25 10:05:56;;;;;;;14.70;11.60;;;;;;;;;;5412425;26;20322;-60
2024/04/25 10:08:22;;;;;;;14.70;11.63;;;;;;;;;;5412098;26;20000;-61
2024/04/25 10:10:49;;;;;;;14.77;11.77;;;;;;;;;;5411947;26;20007;-61
2024/04/25 10:13:15;;;;;;;14.30;10.70;;;;;;;;;;5411149;26;20055;-62
2024/04/25 10:15:40;;;;;;;14.18;10.15;;;;;;;;;;5411332;26;20011;-64
2024/04/25 10:18:07;;;;;;;14.05;9.93;;;;;;;;;;5409829;26;20465;-61
2024/04/25 10:20:33;;;;;;;14.20;10.27;;;;;;;;;;5411651;26;20466;-62
2024/04/25 10:22:59;;;;;;;14.18;10.30;;;;;;;;;;5411094;26;19995;-61
2024/04/25 10:25:26;;;;;;;14.13;10.10;;;;;;;;;;5411802;26;20413;-63
2024/04/25 10:27:56;;;;;;;14.10;9.90;;;;;;;;;;5410339;26;20073;-61
2024/04/25 10:30:22;;;;;;;14.20;10.27;;;;;;;;;;5412192;26;20003;-63
2024/04/25 10:32:49;;;;;;;14.57;10.30;;;;;;;;;;5411079;26;20530;-63
2024/04/25 10:35:15;;;;;;;14.15;10.10;;;;;;;;;;5408973;26;20433;-63
2024/04/25 10:37:41;;;;;;;14.20;10.23;;;;;;;;;;5411619;26;20003;-63
2024/04/25 10:40:08;;;;;;;14.10;10.15;;;;;;;;;;5409352;26;19995;-63
2024/04/25 10:42:34;;;;;;;13.93;9.52;;;;;;;;;;5410925;26;19995;-63
2024/04/25 10:45:00;;;;;;;13.82;9.30;;;;;;;;;;5411271;26;20314;-62
2024/04/25 10:47:26;;;;;;;14.02;9.90;;;;;;;;;;5411136;26;19995;-66
2024/04/25 10:49:53;;;;;;;14.13;10.15;;;;;;;;;;5409312;26;20010;-63
2024/04/25 10:52:19;;;;;;;14.85;11.32;;;;;;;;;;5411086;26;20146;-63
2024/04/25 10:54:45;;;;;;;14.13;10.10;;;;;;;;;;5411012;26;20003;-64
2024/04/25 10:57:14;;;;;;;14.40;10.70;;;;;;;;;;5409848;26;20460;-65
2024/04/25 10:59:41;;;;;;;14.10;10.02;;;;;;;;;;5411445;26;20003;-65
2024/04/25 11:02:09;;;;;;;13.90;9.55;;;;;;;;;;5409219;26;19991;-67
2024/04/25 11:04:43;;;;;;;14.00;9.70;;;;;;;;;;5410890;26;20006;-64
2024/04/25 11:07:13;;;;;;;14.00;9.88;;;;;;;;;;5411249;26;20454;-63
2024/04/25 11:09:39;;;;;;;14.20;10.20;;;;;;;;;;5411316;26;20015;-60
2024/04/25 11:12:08;;;;;;;14.05;10.00;;;;;;;;;;5410490;26;20006;-61
2024/04/25 11:14:34;;;;;;;14.00;9.90;;;;;;;;;;5409315;26;20006;-61
2024/04/25 11:17:03;;;;;;;13.93;9.65;;;;;;;;;;5410652;26;20076;-61
2024/04/25 11:19:30;;;;;;;14.02;10.00;;;;;;;;;;5410160;26;20453;-59
2024/04/25 11:21:56;;;;;;;23.73;10.60;;;;;;;;;;5410783;26;20008;-61
2024/04/25 11:24:23;;;;;;;14.00;9.80;;;;;;;;;;5410387;26;20000;-60
2024/04/25 11:26:53;;;;;;;15.88;9.40;;;;;;;;;;5411184;26;19991;-58
2024/04/25 11:29:20;;;;;;;13.93;9.63;;;;;;;;;;5410894;26;19999;-59
2024/04/25 11:31:46;;;;;;;14.00;9.50;;;;;;;;;;5410270;26;20422;-61
2024/04/25 11:34:23;;;;;;;13.82;9.27;;;;;;;;;;5410056;26;20023;-62
2024/04/25 11:37:01;;;;;;;13.90;9.52;;;;;;;;;;5410736;26;20011;-61
2024/04/25 11:39:30;;;;;;;13.98;9.68;;;;;;;;;;5410347;26;20002;-62
2024/04/25 11:41:58;;;;;;;13.85;9.43;;;;;;;;;;5409566;26;20076;-61
2024/04/25 11:44:26;;;;;;;13.90;9.40;;;;;;;;;;5409473;26;20067;-60
2024/04/25 11:46:52;;;;;;;;;;;;;;;;;;5411841;26;20007;-58
2024/04/25 11:49:18;;;;;;;13.90;9.55;;;;;;;;;;5410366;26;20340;-60
2024/04/25 11:51:44;;;;;;;13.95;9.80;;;;;;;;;;5433397;21;20130;-63
2024/04/25 11:54:10;;;;;;;14.05;10.00;;;;;;;;;;5412143;26;20019;-62
2024/04/25 11:56:36;;;;;;;14.02;9.90;;;;;;;;;;5410184;26;20105;-64
2024/04/25 11:59:02;;;;;;;13.93;9.63;;;;;;;;;;5395260;26;20010;-65
2024/04/25 12:01:28;;;;;;;13.93;9.77;;;;;;;;;;5412769;26;20003;-65
2024/04/25 12:03:54;;;;;;;13.90;9.40;;;;;;;;;;5410177;26;20002;-65
2024/04/25 12:06:21;;;;;;;13.75;9.10;;;;;;;;;;5412659;26;20481;-65
2024/04/25 12:08:47;;;;;;;13.68;8.95;;;;;;;;;;5413916;26;19992;-67
2024/04/25 12:11:13;;;;;;;17.85;10.15;;;;;;;;;;5412678;26;20342;-65
2024/04/25 12:13:39;;;;;;;13.63;8.88;;;;;;;;;;5411852;26;20027;-64
2024/04/25 12:16:05;;;;;;;14.00;9.05;;;;;;;;;;5412370;26;20003;-65
2024/04/25 12:18:32;;;;;;;14.30;9.50;;;;;;;;;;5412866;26;19996;-65
2024/04/25 12:20:59;;;;;;;13.88;9.52;;;;;;;;;;5412991;26;20008;-65
2024/04/25 12:23:25;;;;;;;14.00;9.80;;;;;;;;;;5409751;26;19992;-64
2024/04/25 12:25:53;;;;;;;14.10;10.00;;;;;;;;;;5413217;26;19999;-64
2024/04/25 12:28:19;;;;;;;14.60;10.53;;;;;;;;;;5383586;26;20008;-65
2024/04/25 12:30:45;;;;;;;14.05;10.00;;;;;;;;;;5343632;26;20224;-64
2024/04/25 12:33:11;;;;;;;14.15;10.20;;;;;;;;;;5344646;26;20476;-64
2024/04/25 12:35:37;;;;;;;14.20;10.25;;;;;;;;;;5343848;26;20004;-65
2024/04/25 12:38:06;;;;;;;14.00;9.80;;;;;;;;;;5345098;26;20005;-66
2024/04/25 12:40:32;;;;;;;14.20;10.30;;;;;;;;;;5345292;26;20052;-64
2024/04/25 12:43:00;;;;;;;14.20;10.20;;;;;;;;;;5344975;26;20021;-65
2024/04/25 12:45:32;;;;;;;14.40;10.05;;;;;;;;;;5345350;26;19997;-67
2024/04/25 12:47:58;;;;;;;14.15;10.20;;;;;;;;;;5345132;26;20104;-65
2024/04/25 12:50:24;;;;;;;14.18;10.32;;;;;;;;;;5343030;26;20044;-66
2024/04/25 12:52:50;;;;;;;13.90;9.52;;;;;;;;;;5344721;26;20012;-65
2024/04/25 12:55:16;;;;;;;14.13;10.10;;;;;;;;;;5344517;26;19993;-65
2024/04/25 12:57:42;;;;;;;14.00;9.80;;;;;;;;;;5343394;26;20012;-65
2024/04/25 13:00:09;;;;;;;14.10;10.10;;;;;;;;;;5343282;26;20028;-66
2024/04/25 13:02:35;;;;;;;14.10;10.20;;;;;;;;;;5344523;26;19997;-65
2024/04/25 13:05:01;;;;;;;15.75;10.43;;;;;;;;;;5356489;26;20579;-63
2024/04/25 13:07:27;;;;;;;13.98;9.73;;;;;;;;;;5379555;26;20003;-64
2024/04/25 13:09:53;;;;;;;15.60;10.88;;;;;;;;;;5379582;26;20000;-64
2024/04/25 13:12:19;;;;;;;16.30;10.60;;;;;;;;;;5378034;26;19997;-66
2024/04/25 13:14:45;;;;;;;14.10;9.90;;;;;;;;;;5377810;26;20008;-64
2024/04/25 13:17:11;;;;;;;14.27;10.30;;;;;;;;;;5379650;26;19997;-65
2024/04/25 13:19:37;;;;;;;14.20;10.30;;;;;;;;;;5379475;26;20011;-66
2024/04/25 13:22:05;;;;;;;13.98;9.82;;;;;;;;;;5379106;26;19996;-65
2024/04/25 13:24:31;;;;;;;14.05;10.05;;;;;;;;;;5376330;26;20454;-65
2024/04/25 13:26:57;;;;;;;14.18;10.43;;;;;;;;;;5378447;26;19992;-64
2024/04/25 13:29:23;;;;;;;14.10;9.88;;;;;;;;;;5379347;26;20379;-65
2024/04/25 13:31:49;;;;;;;14.00;9.68;;;;;;;;;;5378839;26;20028;-64
2024/04/25 13:34:16;;;;;;;13.85;9.63;;;;;;;;;;5378509;26;20065;-64
2024/04/25 13:36:42;;;;;;;13.98;9.70;;;;;;;;;;5376189;26;20007;-65
2024/04/25 13:39:09;;;;;;;14.90;10.55;;;;;;;;;;5378659;26;20069;-65
2024/04/25 13:41:35;;;;;;;14.10;10.00;;;;;;;;;;5377754;26;20477;-65
2024/04/25 13:44:01;;;;;;;14.10;10.00;;;;;;;;;;5376608;26;19996;-65
2024/04/25 13:46:28;;;;;;;13.98;9.80;;;;;;;;;;5380151;26;19996;-64
2024/04/25 13:48:54;;;;;;;14.00;9.75;;;;;;;;;;5380251;26;20526;-65
2024/04/25 13:51:20;;;;;;;13.90;9.55;;;;;;;;;;5381046;26;19996;-65
2024/04/25 13:53:46;;;;;;;13.88;9.45;;;;;;;;;;5377922;26;20625;-64
2024/04/25 13:56:12;;;;;;;13.98;9.80;;;;;;;;;;5375887;26;19996;-66
2024/04/25 13:58:38;;;;;;;14.02;9.85;;;;;;;;;;5377888;26;20003;-66
2024/04/25 14:01:04;;;;;;;14.00;9.70;;;;;;;;;;5378851;26;20478;-64
2024/04/25 14:03:30;;;;;;;13.95;9.60;;;;;;;;;;5378313;26;19996;-66
2024/04/25 14:05:56;;;;;;;13.77;9.27;;;;;;;;;;5378423;26;20327;-65
2024/04/25 14:08:22;;;;;;;13.75;9.20;;;;;;;;;;5380644;26;20063;-64
2024/04/25 14:10:49;;;;;;;14.00;9.70;;;;;;;;;;5380955;26;20042;-65
2024/04/25 14:13:15;;;;;;;13.88;9.48;;;;;;;;;;5378306;26;20007;-64
2024/04/25 14:15:41;;;;;;;13.80;9.32;;;;;;;;;;5379012;26;20486;-65
2024/04/25 14:18:07;;;;;;;13.88;9.38;;;;;;;;;;5379544;26;20003;-65
2024/04/25 14:20:33;;;;;;;14.10;9.40;;;;;;;;;;5379675;26;20660;-65
2024/04/25 14:23:00;;;;;;;13.55;8.68;;;;;;;;;;5376723;26;20081;-60
2024/04/25 14:30:55;;;;;;;14.18;10.00;;;;;;;;;;5375141;26;20003;-65
2024/04/25 14:33:22;;;;;;;14.00;9.80;;;;;;;;;;5374576;26;20350;-64
2024/04/25 14:35:48;;;;;;;13.90;9.57;;;;;;;;;;5374812;26;20000;-64
2024/04/25 14:38:14;;;;;;;13.90;9.68;;;;;;;;;;5374375;26;20343;-64
2024/04/25 14:40:40;;;;;;;13.95;9.70;;;;;;;;;;5375476;26;20011;-63